createdAt,value
2023-02-04T00:00:17.187Z,1.48
2023-02-04T00:02:44.150Z,1.75
2023-02-04T00:05:12.283Z,1.75
2023-02-04T00:07:41.265Z,1.48
2023-02-04T00:10:09.606Z,0.90
2023-02-04T00:12:36.731Z,1.88
2023-02-04T00:15:04.846Z,1.35
2023-02-04T00:17:31.698Z,0.60
2023-02-04T00:19:58.621Z,1.20
2023-02-04T00:22:28.338Z,1.73
2023-02-04T00:24:55.216Z,0.60
2023-02-04T00:27:22.467Z,0.70
2023-02-04T00:29:49.462Z,2.45
2023-02-04T00:32:16.464Z,0.98
2023-02-04T00:34:43.369Z,1.00
2023-02-04T00:37:10.249Z,1.63
2023-02-04T00:39:38.105Z,1.48
2023-02-04T00:42:06.365Z,1.92
2023-02-04T00:44:33.288Z,2.42
2023-02-04T00:47:00.608Z,2.70
2023-02-04T00:49:27.597Z,4.05
2023-02-04T00:51:54.396Z,4.38
2023-02-04T00:54:21.377Z,3.17
2023-02-04T00:56:48.218Z,2.45
2023-02-04T00:59:15.780Z,3.55
2023-02-04T01:01:42.768Z,3.08
2023-02-04T01:04:10.718Z,2.63
2023-02-04T01:06:37.560Z,2.63
2023-02-04T01:09:05.003Z,3.72
2023-02-04T01:11:32.556Z,3.13
2023-02-04T01:13:59.958Z,5.78
2023-02-04T01:16:26.991Z,2.97
2023-02-04T01:18:56.025Z,4.15
2023-02-04T01:21:24.827Z,3.70
2023-02-04T01:23:52.390Z,3.92
2023-02-04T01:26:20.254Z,3.63
2023-02-04T01:28:47.190Z,4.95
2023-02-04T01:31:14.445Z,5.13
2023-02-04T01:33:41.603Z,5.57
2023-02-04T01:36:11.193Z,6.75
2023-02-04T01:38:38.178Z,5.97
2023-02-04T01:41:06.145Z,7.35
2023-02-04T01:43:33.758Z,5.32
2023-02-04T01:46:02.547Z,6.07
2023-02-04T01:48:29.639Z,5.57
2023-02-04T01:51:11.333Z,6.82
2023-02-04T01:53:39.936Z,5.40
2023-02-04T01:56:20.131Z,4.72
2023-02-04T01:58:48.405Z,6.65
2023-02-04T02:01:41.746Z,5.28
2023-02-04T02:04:16.652Z,5.93
2023-02-04T02:06:48.376Z,5.40
2023-02-04T02:09:15.954Z,6.32
2023-02-04T02:11:43.845Z,4.70
2023-02-04T02:14:11.807Z,5.22
2023-02-04T02:16:38.717Z,5.10
2023-02-04T02:19:07.477Z,4.65
2023-02-04T02:21:40.595Z,4.85
2023-02-04T02:24:26.375Z,3.22
2023-02-04T02:26:54.978Z,3.40
2023-02-04T02:29:24.844Z,3.17
2023-02-04T02:31:52.227Z,2.40
2023-02-04T02:34:19.208Z,1.50
2023-02-04T02:36:46.227Z,2.47
2023-02-04T02:39:13.333Z,2.40
2023-02-04T02:41:40.772Z,1.55
2023-02-04T02:44:09.390Z,1.58
2023-02-04T02:46:36.362Z,2.17
2023-02-04T02:49:03.281Z,1.67
2023-02-04T02:51:31.231Z,2.95
2023-02-04T02:53:59.047Z,1.70
2023-02-04T02:56:26.851Z,1.90
2023-02-04T02:58:53.987Z,2.65
2023-02-04T03:01:21.460Z,1.70
2023-02-04T03:03:51.995Z,2.17
2023-02-04T03:06:25.765Z,1.48
2023-02-04T03:08:57.795Z,1.48
2023-02-04T03:11:26.319Z,1.55
2023-02-04T03:13:54.041Z,1.15
2023-02-04T03:16:20.979Z,1.77
2023-02-04T03:18:49.168Z,2.60
2023-02-04T03:21:16.121Z,2.17
2023-02-04T03:23:43.077Z,2.70
2023-02-04T03:26:09.900Z,3.95
2023-02-04T03:28:42.413Z,2.25
2023-02-04T03:31:10.040Z,2.20
2023-02-04T03:33:36.968Z,2.20
2023-02-04T03:36:04.077Z,2.42
2023-02-04T03:38:31.113Z,2.38
2023-02-04T03:40:57.956Z,2.53
2023-02-04T03:43:24.751Z,2.13
2023-02-04T03:45:51.604Z,2.33
2023-02-04T03:48:18.678Z,2.40
2023-02-04T03:50:45.856Z,2.58
2023-02-04T03:53:12.740Z,2.40
2023-02-04T03:55:39.574Z,5.03
2023-02-04T03:58:06.657Z,2.95
2023-02-04T04:00:33.873Z,1.90
2023-02-04T04:03:00.940Z,1.88
2023-02-04T04:05:28.719Z,2.55
2023-02-04T04:07:56.016Z,2.80
2023-02-04T04:10:23.107Z,1.58
2023-02-04T04:12:49.987Z,1.38
2023-02-04T04:15:17.144Z,2.13
2023-02-04T04:17:44.012Z,2.15
2023-02-04T04:20:11.311Z,1.80
2023-02-04T04:22:38.548Z,2.28
2023-02-04T04:25:05.864Z,1.10
2023-02-04T04:27:32.973Z,1.40
2023-02-04T04:29:59.776Z,2.65
2023-02-04T04:32:26.649Z,1.08
2023-02-04T04:34:53.509Z,1.30
2023-02-04T04:37:20.376Z,1.25
2023-02-04T04:39:47.147Z,1.08
2023-02-04T04:42:14.036Z,2.20
2023-02-04T04:44:40.841Z,2.03
2023-02-04T04:47:07.897Z,0.85
2023-02-04T04:49:34.779Z,1.00
2023-02-04T04:52:01.614Z,1.13
2023-02-04T04:54:28.433Z,1.42
2023-02-04T04:56:55.270Z,1.38
2023-02-04T04:59:22.125Z,1.00
2023-02-04T05:01:48.981Z,0.80
2023-02-04T05:04:15.996Z,1.08
2023-02-04T05:06:42.855Z,1.23
2023-02-04T05:09:09.796Z,0.90
2023-02-04T05:11:36.646Z,1.20
2023-02-04T05:14:03.497Z,1.17
2023-02-04T05:16:30.329Z,0.95
2023-02-04T05:18:57.243Z,1.65
2023-02-04T05:21:24.247Z,0.82
2023-02-04T05:23:51.046Z,1.00
2023-02-04T05:26:29.378Z,1.17
2023-02-04T05:28:56.987Z,1.33
2023-02-04T05:31:24.045Z,1.27
2023-02-04T05:33:50.950Z,0.73
2023-02-04T05:36:20.547Z,1.35
2023-02-04T05:38:47.401Z,1.40
2023-02-04T05:41:14.256Z,1.27
2023-02-04T05:43:41.255Z,2.05
2023-02-04T05:46:08.156Z,1.80
2023-02-04T05:48:35.011Z,2.03
2023-02-04T05:51:01.914Z,1.02
2023-02-04T05:53:28.775Z,0.80
2023-02-04T05:55:55.674Z,1.00
2023-02-04T05:58:22.773Z,1.10
2023-02-04T06:00:49.727Z,1.10
2023-02-04T06:03:19.422Z,1.33
2023-02-04T06:05:46.464Z,3.20
2023-02-04T06:08:15.825Z,2.35
2023-02-04T06:10:42.741Z,4.22
2023-02-04T06:13:10.124Z,2.35
2023-02-04T06:15:37.643Z,1.30
2023-02-04T06:18:04.537Z,2.42
2023-02-04T06:20:32.942Z,1.50
2023-02-04T06:23:00.036Z,1.13
2023-02-04T06:25:26.834Z,1.30
2023-02-04T06:27:53.708Z,2.28
2023-02-04T06:30:20.612Z,1.17
2023-02-04T06:32:47.594Z,0.90
2023-02-04T06:35:16.521Z,0.98
2023-02-04T06:37:43.894Z,1.13
2023-02-04T06:40:11.922Z,1.85
2023-02-04T06:42:38.828Z,1.30
2023-02-04T06:45:06.173Z,1.25
2023-02-04T06:47:33.086Z,2.08
2023-02-04T06:49:59.905Z,6.80
2023-02-04T06:52:26.775Z,10.63
2023-02-04T06:54:53.608Z,2.15
2023-02-04T06:57:20.449Z,1.23
2023-02-04T06:59:47.257Z,2.40
2023-02-04T07:02:14.477Z,1.77
2023-02-04T07:04:43.808Z,0.93
2023-02-04T07:07:11.531Z,1.48
2023-02-04T07:09:40.573Z,0.80
2023-02-04T07:12:07.749Z,2.53
2023-02-04T07:14:34.893Z,0.60
2023-02-04T07:17:01.826Z,0.75
2023-02-04T07:19:28.682Z,0.52
2023-02-04T07:21:57.126Z,0.77
2023-02-04T07:24:25.101Z,0.50
2023-02-04T07:26:52.232Z,1.33
2023-02-04T07:29:25.253Z,1.40
2023-02-04T07:31:53.223Z,1.67
2023-02-04T07:34:20.932Z,1.17
2023-02-04T07:36:50.008Z,3.83
2023-02-04T07:39:16.850Z,1.55
2023-02-04T07:41:43.834Z,1.20
2023-02-04T07:44:13.018Z,1.30
2023-02-04T07:46:40.174Z,1.52
2023-02-04T07:49:07.246Z,1.17
2023-02-04T07:51:35.056Z,1.10
2023-02-04T07:54:01.861Z,1.48
2023-02-04T07:56:28.727Z,1.13
2023-02-04T07:58:55.628Z,0.60
2023-02-04T08:01:22.598Z,1.65
2023-02-04T08:03:49.424Z,1.65
2023-02-04T08:06:16.232Z,7.28
2023-02-04T08:08:43.025Z,6.65
2023-02-04T08:11:10.004Z,3.17
2023-02-04T08:13:36.812Z,1.90
2023-02-04T08:16:03.782Z,3.20
2023-02-04T08:18:30.623Z,2.33
2023-02-04T08:20:59.078Z,2.65
2023-02-04T08:23:26.282Z,1.10
2023-02-04T08:25:53.161Z,1.27
2023-02-04T08:28:20.151Z,2.47
2023-02-04T08:30:47.568Z,2.05
2023-02-04T08:33:14.429Z,4.00
2023-02-04T08:35:41.702Z,3.58
2023-02-04T08:38:08.687Z,2.20
2023-02-04T08:40:35.629Z,1.50
2023-02-04T08:43:02.523Z,3.10
2023-02-04T08:45:29.317Z,1.95
2023-02-04T08:47:56.222Z,5.10
2023-02-04T08:50:22.994Z,3.30
2023-02-04T08:52:50.038Z,1.85
2023-02-04T08:55:17.087Z,1.67
2023-02-04T08:57:44.014Z,3.58
2023-02-04T09:00:12.312Z,2.85
2023-02-04T09:02:39.142Z,3.42
2023-02-04T09:05:06.404Z,2.33
2023-02-04T09:07:33.211Z,2.70
2023-02-04T09:10:00.017Z,2.72
2023-02-04T09:12:26.815Z,1.42
2023-02-04T09:14:53.666Z,0.95
2023-02-04T09:17:20.543Z,3.75
2023-02-04T09:19:47.492Z,2.92
2023-02-04T09:22:15.305Z,0.93
2023-02-04T09:24:42.150Z,1.17
2023-02-04T09:27:09.194Z,2.33
2023-02-04T09:29:36.131Z,2.22
2023-02-04T09:32:03.122Z,2.40
2023-02-04T09:34:29.980Z,4.20
2023-02-04T09:36:56.819Z,2.20
2023-02-04T09:39:23.899Z,1.90
2023-02-04T09:41:54.014Z,5.25
2023-02-04T09:44:24.914Z,7.93
2023-02-04T09:46:55.049Z,3.20
2023-02-04T09:49:21.845Z,6.50
2023-02-04T09:51:49.927Z,8.18
2023-02-04T09:54:19.683Z,10.10
2023-02-04T09:56:47.784Z,6.88
2023-02-04T09:59:27.420Z,7.80
2023-02-04T10:02:02.427Z,9.82
2023-02-04T10:04:29.518Z,11.77
2023-02-04T10:07:00.223Z,9.32
2023-02-04T10:09:27.233Z,9.23
2023-02-04T10:11:54.820Z,10.13
2023-02-04T10:14:23.510Z,11.43
2023-02-04T10:16:59.788Z,9.23
2023-02-04T10:19:29.717Z,14.38
2023-02-04T10:21:56.870Z,15.02
2023-02-04T10:24:26.518Z,14.07
2023-02-04T10:26:53.889Z,17.48
2023-02-04T10:29:25.566Z,44.38
2023-02-04T10:31:53.239Z,13.77
2023-02-04T10:34:23.401Z,13.35
2023-02-04T10:36:51.849Z,11.93
2023-02-04T10:39:24.262Z,6.88
2023-02-04T10:41:53.577Z,14.68
2023-02-04T10:44:26.137Z,13.95
2023-02-04T10:47:22.819Z,12.60
2023-02-04T10:50:07.305Z,7.00
2023-02-04T10:52:43.408Z,13.27
2023-02-04T10:55:16.597Z,13.05
2023-02-04T10:57:45.858Z,13.48
2023-02-04T11:00:24.452Z,11.60
2023-02-04T11:03:07.383Z,16.60
2023-02-04T11:05:36.757Z,13.73
2023-02-04T11:08:19.786Z,12.98
2023-02-04T11:10:49.697Z,14.18
2023-02-04T11:13:40.117Z,16.17
2023-02-04T11:16:19.038Z,16.40
2023-02-04T11:19:01.200Z,15.55
2023-02-04T11:21:29.370Z,17.83
2023-02-04T11:24:14.490Z,11.00
2023-02-04T11:26:43.433Z,11.77
2023-02-04T11:29:15.916Z,14.00
2023-02-04T11:31:58.935Z,15.75
2023-02-04T11:34:29.405Z,12.82
2023-02-04T11:37:02.362Z,18.90
2023-02-04T11:39:37.179Z,17.13
2023-02-04T11:42:06.169Z,17.40
2023-02-04T11:44:33.875Z,12.43
2023-02-04T11:47:02.836Z,14.13
2023-02-04T11:49:30.701Z,13.75
2023-02-04T11:52:08.804Z,13.32
2023-02-04T11:54:36.709Z,14.50
2023-02-04T11:57:03.931Z,16.25
2023-02-04T11:59:30.801Z,13.52
2023-02-04T12:02:27.390Z,16.58
2023-02-04T12:04:57.679Z,15.63
2023-02-04T12:07:29.686Z,16.02
2023-02-04T12:09:57.541Z,16.98
2023-02-04T12:12:29.718Z,11.25
2023-02-04T12:14:59.009Z,10.65
2023-02-04T12:17:25.858Z,13.20
2023-02-04T12:19:52.734Z,12.38
2023-02-04T12:22:19.691Z,7.15
2023-02-04T12:24:46.545Z,11.95
2023-02-04T12:27:13.460Z,16.80
2023-02-04T12:29:40.260Z,9.05
2023-02-04T12:32:07.206Z,9.18
2023-02-04T12:34:34.159Z,12.00
2023-02-04T12:37:00.978Z,9.77
2023-02-04T12:39:28.674Z,10.70
2023-02-04T12:41:55.528Z,11.15
2023-02-04T12:44:22.407Z,10.57
2023-02-04T12:46:49.328Z,11.50
2023-02-04T12:49:16.167Z,7.07
2023-02-04T12:51:42.976Z,9.52
2023-02-04T12:54:09.770Z,9.15
2023-02-04T12:56:36.592Z,7.35
2023-02-04T12:59:03.461Z,7.88
2023-02-04T13:01:30.256Z,12.05
2023-02-04T13:03:58.142Z,8.85
2023-02-04T13:06:25.002Z,14.82
2023-02-04T13:08:51.836Z,8.30
2023-02-04T13:11:18.710Z,9.32
2023-02-04T13:13:45.558Z,12.23
2023-02-04T13:16:12.820Z,14.80
2023-02-04T13:18:39.685Z,10.02
2023-02-04T13:21:06.516Z,15.57
2023-02-04T13:23:33.360Z,11.18
2023-02-04T13:26:00.178Z,10.02
2023-02-04T13:28:27.318Z,8.68
2023-02-04T13:30:54.174Z,10.45
2023-02-04T13:33:21.004Z,12.07
2023-02-04T13:35:47.833Z,7.75
2023-02-04T13:38:14.668Z,11.32
2023-02-04T13:40:41.506Z,13.18
2023-02-04T13:43:08.495Z,11.48
2023-02-04T13:45:35.807Z,11.07
2023-02-04T13:48:03.016Z,7.32
2023-02-04T13:50:30.073Z,7.55
2023-02-04T13:52:57.078Z,13.02
2023-02-04T13:55:24.593Z,11.48
2023-02-04T13:57:51.444Z,6.40
2023-02-04T14:00:18.484Z,69.63
2023-02-04T14:02:45.766Z,8.07
2023-02-04T14:05:12.707Z,8.98
2023-02-04T14:07:39.587Z,11.00
2023-02-04T14:10:07.189Z,6.95
2023-02-04T14:12:34.162Z,9.57
2023-02-04T14:15:01.149Z,12.57
2023-02-04T14:17:28.004Z,11.85
2023-02-04T14:19:54.839Z,14.35
2023-02-04T14:22:22.141Z,47.58
2023-02-04T14:24:50.603Z,35.20
2023-02-04T14:27:17.475Z,13.00
2023-02-04T14:29:44.313Z,54.58
2023-02-04T14:32:11.183Z,12.30
2023-02-04T14:34:38.065Z,13.40
2023-02-04T14:37:04.885Z,15.55
2023-02-04T14:39:31.737Z,31.75
2023-02-04T14:41:58.601Z,12.65
2023-02-04T14:44:25.545Z,7.85
2023-02-04T14:46:52.655Z,7.53
2023-02-04T14:49:19.546Z,53.25
2023-02-04T14:51:46.760Z,11.43
2023-02-04T14:54:14.753Z,6.90
2023-02-04T14:56:41.634Z,6.88
2023-02-04T14:59:08.503Z,7.68
2023-02-04T15:01:35.592Z,5.22
2023-02-04T15:04:02.701Z,6.15
2023-02-04T15:06:29.559Z,11.90
2023-02-04T15:08:57.309Z,8.65
2023-02-04T15:11:24.163Z,11.70
2023-02-04T15:13:50.942Z,13.27
2023-02-04T15:16:18.385Z,9.10
2023-02-04T15:18:45.375Z,13.82
2023-02-04T15:21:13.092Z,9.68
2023-02-04T15:23:40.091Z,10.88
2023-02-04T15:26:06.922Z,8.63
2023-02-04T15:28:33.771Z,13.07
2023-02-04T15:31:02.045Z,7.68
2023-02-04T15:33:29.089Z,6.60
2023-02-04T15:35:55.920Z,8.35
2023-02-04T15:38:22.972Z,16.88
2023-02-04T15:40:49.877Z,12.52
2023-02-04T15:43:16.704Z,11.35
2023-02-04T15:45:44.044Z,13.27
2023-02-04T15:48:11.274Z,7.40
2023-02-04T15:50:39.267Z,6.10
2023-02-04T15:53:07.075Z,8.68
2023-02-04T15:55:34.252Z,7.43
2023-02-04T15:58:01.108Z,7.53
2023-02-04T16:00:27.972Z,7.15
2023-02-04T16:02:54.901Z,6.18
2023-02-04T16:05:21.758Z,6.93
2023-02-04T16:07:49.010Z,11.35
2023-02-04T16:10:18.275Z,10.68
2023-02-04T16:12:47.378Z,7.57
2023-02-04T16:15:15.103Z,13.15
2023-02-04T16:17:42.381Z,9.75
2023-02-04T16:20:10.721Z,9.10
2023-02-04T16:22:37.617Z,12.95
2023-02-04T16:25:05.469Z,18.38
2023-02-04T16:27:33.904Z,14.90
2023-02-04T16:30:01.217Z,15.75
2023-02-04T16:32:29.633Z,15.32
2023-02-04T16:34:56.834Z,11.43
2023-02-04T16:37:23.751Z,16.70
2023-02-04T16:39:51.550Z,15.68
2023-02-04T16:42:18.600Z,14.70
2023-02-04T16:44:45.548Z,15.23
2023-02-04T16:47:12.447Z,13.07
2023-02-04T16:49:39.590Z,14.82
2023-02-04T16:52:06.499Z,17.17
2023-02-04T16:54:34.628Z,12.20
2023-02-04T16:57:01.629Z,12.77
2023-02-04T16:59:28.986Z,16.58
2023-02-04T17:02:00.659Z,21.05
2023-02-04T17:04:28.005Z,11.80
2023-02-04T17:06:54.970Z,20.70
2023-02-04T17:09:22.186Z,15.50
2023-02-04T17:11:49.394Z,11.00
2023-02-04T17:14:16.246Z,16.00
2023-02-04T17:16:47.480Z,10.27
2023-02-04T17:19:17.505Z,13.07
2023-02-04T17:21:45.082Z,9.02
2023-02-04T17:24:12.292Z,14.30
2023-02-04T17:26:40.364Z,18.40
2023-02-04T17:29:12.936Z,18.60
2023-02-04T17:31:42.712Z,16.55
2023-02-04T17:34:10.264Z,12.25
2023-02-04T17:36:37.188Z,15.60
2023-02-04T17:39:04.524Z,14.20
2023-02-04T17:41:31.385Z,17.27
2023-02-04T17:43:59.095Z,14.48
2023-02-04T17:46:26.250Z,19.80
2023-02-04T17:48:53.220Z,21.70
2023-02-04T17:51:20.332Z,34.83
2023-02-04T17:53:47.211Z,27.73
2023-02-04T17:56:15.175Z,32.15
2023-02-04T17:58:43.043Z,31.05
2023-02-04T18:01:15.781Z,30.27
2023-02-04T18:03:43.360Z,23.67
2023-02-04T18:06:27.094Z,26.35
2023-02-04T18:09:01.405Z,21.10
2023-02-04T18:11:32.969Z,15.80
2023-02-04T18:14:05.442Z,18.17
2023-02-04T18:16:34.536Z,21.33
2023-02-04T18:19:28.988Z,26.05
2023-02-04T18:21:58.105Z,22.15
2023-02-04T18:24:35.806Z,30.67
2023-02-04T18:27:18.025Z,28.88
2023-02-04T18:29:48.377Z,29.13
2023-02-04T18:32:26.435Z,31.77
2023-02-04T18:34:55.709Z,33.10
2023-02-04T18:37:34.036Z,30.08
2023-02-04T18:40:09.788Z,31.85
2023-02-04T18:42:39.248Z,49.78
2023-02-04T18:45:28.138Z,34.05
2023-02-04T18:47:58.013Z,39.85
2023-02-04T18:50:33.450Z,40.92
2023-02-04T18:53:12.417Z,82.22
2023-02-04T18:55:42.007Z,67.95
2023-02-04T18:58:33.984Z,47.17
2023-02-04T19:01:16.821Z,42.38
2023-02-04T19:03:49.972Z,37.95
2023-02-04T19:06:37.977Z,29.23
2023-02-04T19:09:13.582Z,37.83
2023-02-04T19:11:48.888Z,38.88
2023-02-04T19:14:19.053Z,37.72
2023-02-04T19:16:47.238Z,43.42
2023-02-04T19:19:35.502Z,30.17
2023-02-04T19:22:17.783Z,41.00
2023-02-04T19:24:45.693Z,41.83
2023-02-04T19:27:27.048Z,47.25
2023-02-04T19:29:55.484Z,34.28
2023-02-04T19:32:40.114Z,34.10
2023-02-04T19:35:19.034Z,32.65
2023-02-04T19:37:53.127Z,33.80
2023-02-04T19:40:27.431Z,33.45
2023-02-04T19:43:35.842Z,40.58
2023-02-04T19:46:19.628Z,32.80
2023-02-04T19:48:47.141Z,42.42
2023-02-04T19:51:23.814Z,40.80
2023-02-04T19:53:56.511Z,38.95
2023-02-04T19:56:29.248Z,45.13
2023-02-04T19:58:57.605Z,41.70
2023-02-04T20:01:24.494Z,46.10
2023-02-04T20:03:51.820Z,55.17
2023-02-04T20:06:36.142Z,81.38
2023-02-04T20:09:18.414Z,83.78
2023-02-04T20:12:11.072Z,54.72
2023-02-04T20:14:55.986Z,55.92
2023-02-04T20:17:37.771Z,47.85
2023-02-04T20:20:19.845Z,56.45
2023-02-04T20:22:50.529Z,60.25
2023-02-04T20:25:20.241Z,58.15
2023-02-04T20:27:52.463Z,69.05
2023-02-04T20:30:25.658Z,54.03
2023-02-04T20:32:57.417Z,59.45
2023-02-04T20:35:31.997Z,51.08
2023-02-04T20:38:07.847Z,45.25
2023-02-04T20:40:37.465Z,47.05
2023-02-04T20:43:12.183Z,48.20
2023-02-04T20:45:50.110Z,61.47
2023-02-04T20:48:16.952Z,53.67
2023-02-04T20:50:46.742Z,66.53
2023-02-04T20:53:20.742Z,68.07
2023-02-04T20:55:50.872Z,61.92
2023-02-04T20:58:32.410Z,61.33
2023-02-04T21:00:59.223Z,52.65
2023-02-04T21:03:35.954Z,67.68
2023-02-04T21:06:15.769Z,64.05
2023-02-04T21:08:50.102Z,55.80
2023-02-04T21:11:16.949Z,61.75
2023-02-04T21:13:43.876Z,61.17
2023-02-04T21:16:10.901Z,67.40
2023-02-04T21:18:38.980Z,64.68
2023-02-04T21:21:07.933Z,55.45
2023-02-04T21:23:36.677Z,48.28
2023-02-04T21:26:04.262Z,37.65
2023-02-04T21:28:32.427Z,35.75
2023-02-04T21:31:00.188Z,36.92
2023-02-04T21:33:27.682Z,30.75
2023-02-04T21:35:54.476Z,30.17
2023-02-04T21:38:21.372Z,27.02
2023-02-04T21:40:48.922Z,34.38
2023-02-04T21:43:15.765Z,30.02
2023-02-04T21:45:42.625Z,32.28
2023-02-04T21:48:09.544Z,28.75
2023-02-04T21:50:38.399Z,40.75
2023-02-04T21:53:06.366Z,33.35
2023-02-04T21:55:34.370Z,40.92
2023-02-04T21:58:01.573Z,39.17
2023-02-04T22:00:28.647Z,31.48
2023-02-04T22:02:56.029Z,33.58
2023-02-04T22:05:23.775Z,35.95
2023-02-04T22:07:51.367Z,36.67
2023-02-04T22:10:21.248Z,37.70
2023-02-04T22:12:48.449Z,35.42
2023-02-04T22:15:18.658Z,41.90
2023-02-04T22:17:45.781Z,41.08
2023-02-04T22:20:15.626Z,45.97
2023-02-04T22:22:44.570Z,48.13
2023-02-04T22:25:13.250Z,41.55
2023-02-04T22:27:40.368Z,41.13
2023-02-04T22:30:08.289Z,39.88
2023-02-04T22:32:35.324Z,43.10
2023-02-04T22:35:02.254Z,41.28
2023-02-04T22:37:29.111Z,34.80
2023-02-04T22:39:56.114Z,40.83
2023-02-04T22:42:22.986Z,42.22
2023-02-04T22:44:50.184Z,30.60
2023-02-04T22:47:17.536Z,34.38
2023-02-04T22:49:44.361Z,32.22
2023-02-04T22:52:11.881Z,29.83
2023-02-04T22:54:38.997Z,33.55
2023-02-04T22:57:06.111Z,36.58
2023-02-04T22:59:33.650Z,38.08
2023-02-04T23:02:00.638Z,39.15
2023-02-04T23:04:27.603Z,37.03
2023-02-04T23:06:54.949Z,36.13
2023-02-04T23:09:23.309Z,30.70
2023-02-04T23:11:50.136Z,27.23
2023-02-04T23:14:16.986Z,22.23
2023-02-04T23:16:43.939Z,26.33
2023-02-04T23:19:10.776Z,26.23
2023-02-04T23:21:37.593Z,31.98
2023-02-04T23:24:04.545Z,27.08
2023-02-04T23:26:31.487Z,27.60
2023-02-04T23:29:00.824Z,25.92
2023-02-04T23:31:28.365Z,27.20
2023-02-04T23:33:55.198Z,24.80
2023-02-04T23:36:22.031Z,27.27
2023-02-04T23:38:48.841Z,21.90
2023-02-04T23:41:15.726Z,27.90
2023-02-04T23:43:42.558Z,29.75
2023-02-04T23:46:09.689Z,30.90
2023-02-04T23:48:36.802Z,30.67
2023-02-04T23:51:03.985Z,22.00
2023-02-04T23:53:30.899Z,22.70
2023-02-04T23:55:57.694Z,21.30
2023-02-04T23:58:24.585Z,23.25
